Time;durP1;ratioP1;P1;durP2;ratioP2;P2;SDS_P1;SDS_P2;PMS_P1;PMS_P2;Temp;Humidity;BMP_temperature;BMP_pressure;BME280_temperature;BME280_humidity;BME280_pressure;Samples;Min_cycle;Max_cycle;Signal;HPM_P1;HPM_P2
2021/07/14 00:00:43;;;;;;;7.47;6.13;;;;;;;26.51;40.47;94572.94;2966332;40;20062;-69
2021/07/14 00:02:48;;;;;;;7.15;5.63;;;;;;;26.51;40.35;94574.81;2966383;40;20068;-71
2021/07/14 00:04:50;;;;;;;7.60;5.75;;;;;;;26.48;40.52;94576.16;2962809;40;20048;-70
2021/07/14 00:06:52;;;;;;;6.32;5.40;;;;;;;26.49;40.59;94579.63;2962743;40;20117;-69
2021/07/14 00:08:59;;;;;;;6.57;5.88;;;;;;;26.47;40.50;94576.41;2966676;40;20053;-68
2021/07/14 00:11:01;;;;;;;8.65;6.22;;;;;;;26.45;40.59;94578.53;2956792;40;20087;-69
2021/07/14 00:17:51;;;;;;;7.38;5.95;;;;;;;26.45;40.51;94582.03;2964092;40;20054;-69
2021/07/14 00:22:14;;;;;;;8.23;5.85;;;;;;;26.40;40.98;94575.84;2967135;40;20062;-69
2021/07/14 00:24:16;;;;;;;6.05;5.45;;;;;;;26.36;40.80;94575.53;2966890;40;20081;-70
2021/07/14 00:26:18;;;;;;;8.25;5.13;;;;;;;26.34;40.64;94572.31;2966911;40;20078;-70
2021/07/14 00:28:19;;;;;;;5.60;4.88;;;;;;;26.33;40.90;94570.72;2965137;40;20036;-69
2021/07/14 00:30:26;;;;;;;6.65;5.60;;;;;;;26.26;40.98;94570.91;2966878;40;20481;-82
2021/07/14 00:32:27;;;;;;;9.13;5.68;;;;;;;26.26;41.05;94572.81;2965595;40;20095;-80
2021/07/14 00:34:29;;;;;;;7.20;5.78;;;;;;;26.21;40.76;94573.59;2966941;40;20061;-80
2021/07/14 00:36:31;;;;;;;7.80;5.45;;;;;;;26.18;41.11;94568.75;2962023;40;20074;-81
2021/07/14 00:38:33;;;;;;;6.35;5.50;;;;;;;26.20;40.73;94571.16;2969256;40;20122;-81
2021/07/14 00:40:35;;;;;;;11.60;6.07;;;;;;;26.22;41.01;94566.31;2967655;40;20074;-79
2021/07/14 00:42:37;;;;;;;7.45;5.88;;;;;;;26.25;40.91;94572.00;2961098;40;20184;-81
2021/07/14 00:44:40;;;;;;;8.90;5.57;;;;;;;26.23;40.80;94584.88;2967181;40;20096;-81
2021/07/14 00:46:45;;;;;;;9.43;5.75;;;;;;;26.22;40.71;94577.91;2967511;40;20321;-81
2021/07/14 00:48:49;;;;;;;7.88;5.70;;;;;;;26.18;40.99;94581.34;2969170;40;20040;-80
2021/07/14 00:50:51;;;;;;;6.80;5.68;;;;;;;26.16;40.86;94578.94;2971138;40;20133;-80
2021/07/14 00:52:53;;;;;;;7.68;6.10;;;;;;;26.17;41.07;94579.72;2967215;40;20297;-79
2021/07/14 00:54:55;;;;;;;9.98;6.35;;;;;;;26.11;41.55;94581.56;2971669;40;20309;-82
2021/07/14 00:56:57;;;;;;;11.30;7.05;;;;;;;25.98;41.78;94576.66;2965808;40;20157;-81
2021/07/14 00:58:59;;;;;;;8.65;6.20;;;;;;;25.84;42.38;94573.59;2971960;40;20396;-80
2021/07/14 01:01:01;;;;;;;9.25;7.15;;;;;;;25.66;42.75;94572.94;2961612;40;20097;-80
2021/07/14 01:03:03;;;;;;;8.07;6.88;;;;;;;25.54;42.94;94581.13;2968584;40;20080;-80
2021/07/14 01:05:09;;;;;;;8.57;6.15;;;;;;;25.44;43.47;94580.25;2972322;40;20060;-81
2021/07/14 01:07:24;;;;;;;8.68;6.97;;;;;;;25.34;43.48;94578.28;2964585;40;20378;-80
2021/07/14 01:09:52;;;;;;;9.30;7.35;;;;;;;24.81;44.94;94583.34;2967974;40;20092;-81
2021/07/14 01:11:56;;;;;;;7.40;6.68;;;;;;;24.57;45.19;94584.66;2950145;40;20106;-81
2021/07/14 01:14:05;;;;;;;9.20;6.93;;;;;;;24.53;45.45;94587.81;2964791;40;20133;-80
2021/07/14 01:16:09;;;;;;;8.13;6.80;;;;;;;24.60;45.42;94589.50;2958685;40;20084;-80
2021/07/14 01:18:29;;;;;;;7.85;6.97;;;;;;;24.69;45.25;94590.69;2965315;40;20056;-81
2021/07/14 01:20:51;;;;;;;10.18;7.45;;;;;;;24.59;45.54;94590.59;2967915;40;20079;-81
2021/07/14 01:23:17;;;;;;;8.55;7.65;;;;;;;24.50;45.43;94595.53;2963125;40;20110;-81
2021/07/14 01:25:27;;;;;;;10.52;7.50;;;;;;;24.32;46.12;94588.59;2969062;40;20072;-81
2021/07/14 01:27:34;;;;;;;9.95;7.80;;;;;;;23.85;47.02;94591.66;2967151;40;20125;-80
2021/07/14 01:29:55;;;;;;;8.55;7.18;;;;;;;23.56;47.53;94591.72;2957963;40;20138;-81
2021/07/14 01:32:00;;;;;;;7.70;6.90;;;;;;;23.30;48.60;94595.84;2961236;40;20056;-81
2021/07/14 01:34:04;;;;;;;8.57;7.50;;;;;;;23.44;48.42;94599.00;2966033;40;20068;-81
2021/07/14 01:36:09;;;;;;;8.80;7.88;;;;;;;23.66;47.42;94591.06;2960136;40;20060;-81
2021/07/14 01:38:12;;;;;;;12.30;7.22;;;;;;;23.90;47.06;94589.88;2959698;40;20329;-81
2021/07/14 01:40:15;;;;;;;7.60;6.53;;;;;;;24.04;46.36;94586.88;2965314;40;20362;-81
2021/07/14 01:42:19;;;;;;;7.35;6.65;;;;;;;24.17;46.43;94591.88;2958085;40;20114;-81
2021/07/14 01:44:24;;;;;;;8.45;7.50;;;;;;;24.26;46.29;94590.41;2969258;40;20420;-80
2021/07/14 01:46:29;;;;;;;7.63;6.80;;;;;;;24.33;45.50;94587.53;2958285;40;20184;-82
2021/07/14 01:48:31;;;;;;;7.65;6.85;;;;;;;24.45;45.52;94587.41;2957581;40;20387;-80
2021/07/14 01:50:33;;;;;;;10.02;7.32;;;;;;;24.48;45.52;94587.78;2967400;40;20122;-81
2021/07/14 01:52:36;;;;;;;7.47;6.50;;;;;;;24.55;45.38;94590.25;2967007;40;20415;-80
2021/07/14 01:54:40;;;;;;;11.43;7.13;;;;;;;24.59;45.42;94587.91;2966834;40;20063;-79
2021/07/14 01:56:42;;;;;;;8.65;6.78;;;;;;;24.65;45.10;94589.56;2959348;40;20307;-79
2021/07/14 01:58:45;;;;;;;10.02;7.38;;;;;;;24.71;45.19;94600.09;2966802;40;20102;-81
2021/07/14 02:00:51;;;;;;;7.50;6.78;;;;;;;24.72;45.09;94592.88;2966327;40;20064;-81
2021/07/14 02:03:08;;;;;;;9.40;7.07;;;;;;;24.76;45.34;94595.84;2967823;40;20060;-80
2021/07/14 02:05:12;;;;;;;8.65;7.18;;;;;;;24.81;45.32;94590.56;2961475;40;20349;-81
2021/07/14 02:07:16;;;;;;;10.15;7.15;;;;;;;24.80;44.96;94599.66;2963875;40;20053;-81
2021/07/14 02:09:18;;;;;;;8.75;7.35;;;;;;;24.80;45.21;94600.47;2967124;40;20072;-81
2021/07/14 02:11:24;;;;;;;8.00;7.20;;;;;;;24.80;45.17;94602.31;2970161;40;20048;-81
2021/07/14 02:13:27;;;;;;;8.85;6.68;;;;;;;24.83;45.11;94602.66;2966638;40;20060;-80
2021/07/14 02:15:30;;;;;;;9.70;7.15;;;;;;;24.79;45.11;94604.22;2957255;40;20052;-79
2021/07/14 02:17:39;;;;;;;12.77;7.43;;;;;;;24.71;45.31;94600.09;2964701;40;20072;-80
2021/07/14 02:19:46;;;;;;;9.48;7.32;;;;;;;24.48;46.25;94606.50;2961673;40;20098;-80
2021/07/14 02:21:48;;;;;;;8.40;6.93;;;;;;;24.45;46.40;94611.50;2970427;40;20135;-80
2021/07/14 02:23:50;;;;;;;11.77;7.60;;;;;;;24.49;46.16;94616.16;2972499;39;20341;-81
2021/07/14 02:25:52;;;;;;;8.40;7.28;;;;;;;24.50;45.99;94617.78;2969027;40;20152;-82
2021/07/14 02:27:54;;;;;;;11.13;7.43;;;;;;;24.48;46.26;94614.53;2966376;40;20086;-81
2021/07/14 02:29:55;;;;;;;11.45;7.50;;;;;;;24.42;46.37;94609.34;2967616;40;20040;-80
2021/07/14 02:31:57;;;;;;;9.48;7.32;;;;;;;24.40;46.35;94609.59;2968278;40;20058;-80
2021/07/14 02:34:00;;;;;;;8.30;7.45;;;;;;;24.40;46.41;94614.94;2968820;40;20057;-81
2021/07/14 02:36:03;;;;;;;15.45;7.68;;;;;;;24.34;46.32;94626.63;2961139;40;20056;-81
2021/07/14 02:38:11;;;;;;;10.18;7.40;;;;;;;24.13;46.69;94625.53;2966028;40;20402;-69
2021/07/14 02:40:17;;;;;;;9.43;7.30;;;;;;;24.04;46.98;94630.47;2964570;40;20335;-69
2021/07/14 02:42:27;;;;;;;8.63;6.90;;;;;;;23.98;47.25;94634.13;2966160;40;20096;-69
2021/07/14 02:44:34;;;;;;;9.27;6.90;;;;;;;23.83;47.57;94639.25;2958344;40;20045;-69
2021/07/14 02:46:39;;;;;;;11.60;7.22;;;;;;;23.75;47.71;94628.91;2959893;40;20361;-68
2021/07/14 02:48:41;;;;;;;11.05;8.10;;;;;;;23.58;48.10;94632.41;2966090;40;20056;-68
2021/07/14 02:50:43;;;;;;;11.70;7.80;;;;;;;23.45;48.64;94628.19;2965166;40;20036;-69
2021/07/14 02:52:49;;;;;;;11.43;7.72;;;;;;;23.49;48.56;94640.00;2969318;40;20054;-68
2021/07/14 02:54:52;;;;;;;9.20;7.72;;;;;;;23.61;48.33;94637.25;2961943;40;20453;-68
2021/07/14 02:57:01;;;;;;;8.90;7.00;;;;;;;23.77;47.95;94642.88;2958009;40;20044;-68
2021/07/14 02:59:08;;;;;;;8.73;7.03;;;;;;;23.88;47.54;94639.34;2958423;40;20499;-69
2021/07/14 03:01:12;;;;;;;10.02;7.43;;;;;;;24.00;47.25;94645.41;2963432;40;20280;-69
2021/07/14 03:03:15;;;;;;;9.93;7.55;;;;;;;24.09;46.89;94643.13;2965319;40;20398;-69
2021/07/14 03:05:18;;;;;;;8.30;7.38;;;;;;;24.17;46.80;94650.75;2966489;40;20036;-68
2021/07/14 03:07:25;;;;;;;9.95;7.65;;;;;;;24.22;46.57;94648.16;2958852;40;20073;-68
2021/07/14 03:09:32;;;;;;;9.77;7.20;;;;;;;24.26;46.53;94654.66;2966776;40;20067;-81
2021/07/14 03:11:38;;;;;;;10.00;7.30;;;;;;;24.30;46.26;94644.25;2963662;40;20053;-82
2021/07/14 03:13:42;;;;;;;8.07;7.20;;;;;;;24.35;46.03;94644.34;2958704;40;20053;-80
2021/07/14 03:15:45;;;;;;;12.32;7.32;;;;;;;24.40;46.44;94639.03;2958889;40;20080;-80
2021/07/14 03:17:48;;;;;;;8.63;7.38;;;;;;;24.42;45.90;94641.47;2966446;40;20067;-82
2021/07/14 03:19:52;;;;;;;9.98;6.75;;;;;;;24.39;46.11;94639.28;2967893;40;20059;-81
2021/07/14 03:21:54;;;;;;;10.95;7.38;;;;;;;24.39;46.03;94632.03;2964108;40;20084;-69
2021/07/14 03:23:58;;;;;;;8.18;7.32;;;;;;;24.43;46.24;94638.53;2961248;40;20114;-68
2021/07/14 03:26:00;;;;;;;7.60;6.72;;;;;;;24.50;46.07;94644.56;2965070;40;20348;-68
2021/07/14 03:28:02;;;;;;;10.57;7.20;;;;;;;24.56;45.72;94639.25;2965861;40;20109;-69
2021/07/14 03:30:05;;;;;;;9.38;7.28;;;;;;;24.58;45.69;94642.50;2967331;40;20393;-69
2021/07/14 03:32:07;;;;;;;8.68;7.72;;;;;;;24.60;46.05;94630.47;2967250;40;20529;-69
2021/07/14 03:34:09;;;;;;;13.38;6.72;;;;;;;24.66;45.70;94636.72;2958052;40;20111;-67
2021/07/14 03:36:11;;;;;;;10.48;7.60;;;;;;;24.68;45.73;94645.31;2957359;40;20074;-70
2021/07/14 03:38:16;;;;;;;9.40;7.60;;;;;;;24.71;45.54;94639.47;2966912;40;20164;-69
2021/07/14 03:40:18;;;;;;;10.27;7.47;;;;;;;24.75;45.60;94639.78;2966439;40;20152;-69
2021/07/14 03:42:20;;;;;;;9.32;7.38;;;;;;;24.79;45.56;94639.03;2955072;40;20057;-69
2021/07/14 03:44:22;;;;;;;11.02;7.55;;;;;;;24.82;45.57;94649.25;2965530;40;20151;-68
2021/07/14 03:46:25;;;;;;;9.13;7.47;;;;;;;24.88;45.74;94650.91;2965574;40;20058;-69
2021/07/14 03:48:29;;;;;;;10.32;7.97;;;;;;;24.94;45.78;94647.25;2960115;40;20146;-69
2021/07/14 03:50:32;;;;;;;9.20;7.22;;;;;;;24.98;45.94;94652.13;2967723;40;20057;-69
2021/07/14 03:52:34;;;;;;;11.77;8.55;;;;;;;24.77;45.24;94654.53;2958046;40;20449;-68
2021/07/14 03:54:37;;;;;;;11.13;7.90;;;;;;;23.95;46.92;94664.06;2957810;40;20057;-69
2021/07/14 03:56:39;;;;;;;10.07;8.18;;;;;;;23.31;49.03;94670.41;2950017;40;20155;-70
2021/07/14 03:58:43;;;;;;;11.10;9.13;;;;;;;23.07;49.98;94675.03;2960631;40;20085;-69
2021/07/14 04:00:48;;;;;;;10.57;8.48;;;;;;;23.04;49.80;94672.06;2962578;40;20079;-69
2021/07/14 04:02:50;;;;;;;9.32;8.32;;;;;;;23.19;49.58;94669.69;2963209;40;20586;-69
2021/07/14 04:04:52;;;;;;;12.57;8.70;;;;;;;23.53;48.80;94677.75;2965688;39;20058;-69
2021/07/14 04:07:02;;;;;;;12.32;8.02;;;;;;;23.83;47.80;94677.53;2966763;40;20068;-67
2021/07/14 04:09:15;;;;;;;10.63;7.93;;;;;;;24.09;47.15;94669.88;2967434;40;20044;-70
2021/07/14 04:11:17;;;;;;;15.27;7.88;;;;;;;24.26;46.54;94673.38;2958443;40;20059;-69
2021/07/14 04:13:19;;;;;;;11.82;8.57;;;;;;;24.43;46.33;94667.97;2954313;40;20065;-69
2021/07/14 04:15:21;;;;;;;10.85;8.18;;;;;;;24.56;45.67;94664.19;2960438;40;20365;-69
2021/07/14 04:17:23;;;;;;;13.00;8.20;;;;;;;24.69;45.43;94665.69;2958361;40;20052;-70
2021/07/14 04:19:25;;;;;;;10.38;8.15;;;;;;;24.76;45.21;94669.00;2971601;40;20278;-69
2021/07/14 04:21:27;;;;;;;9.90;7.70;;;;;;;24.82;45.46;94672.53;2967453;40;20062;-68
2021/07/14 04:23:29;;;;;;;12.93;8.07;;;;;;;24.88;45.02;94672.34;2972204;40;20137;-70
2021/07/14 04:25:31;;;;;;;12.95;7.95;;;;;;;24.93;44.96;94669.75;2967306;40;20049;-69
2021/07/14 04:27:32;;;;;;;10.27;8.40;;;;;;;25.00;44.94;94663.41;2967320;40;20048;-69
2021/07/14 04:29:34;;;;;;;15.90;8.40;;;;;;;25.04;44.80;94665.34;2970668;40;20052;-69
2021/07/14 04:31:37;;;;;;;12.82;8.93;;;;;;;24.74;45.69;94663.09;2960161;40;20113;-70
2021/07/14 04:33:41;;;;;;;12.50;9.30;;;;;;;24.80;45.27;94662.09;2962727;40;20064;-68
2021/07/14 04:35:42;;;;;;;12.93;8.25;;;;;;;24.92;45.42;94662.75;2966857;40;20307;-69
2021/07/14 04:37:47;;;;;;;13.10;9.05;;;;;;;25.01;45.05;94668.50;2967019;40;20054;-69
2021/07/14 04:39:49;;;;;;;10.85;8.70;;;;;;;25.09;45.10;94661.91;2967110;40;20247;-69
2021/07/14 04:41:51;;;;;;;14.68;8.93;;;;;;;25.16;45.12;94681.28;2960370;40;20065;-70
2021/07/14 04:43:53;;;;;;;10.38;8.15;;;;;;;25.19;45.26;94678.09;2966024;40;20445;-69
2021/07/14 04:45:55;;;;;;;14.77;8.98;;;;;;;25.25;45.44;94684.34;2966777;40;20224;-70
2021/07/14 04:47:56;;;;;;;16.42;9.38;;;;;;;25.31;45.30;94694.06;2964615;40;20456;-69
2021/07/14 04:49:58;;;;;;;14.35;9.02;;;;;;;25.36;45.34;94691.47;2961329;40;20161;-69
2021/07/14 04:52:00;;;;;;;9.43;8.50;;;;;;;25.13;45.80;94701.34;2959097;40;20452;-69
2021/07/14 04:54:02;;;;;;;9.70;8.30;;;;;;;24.84;46.67;94695.34;2966113;40;20084;-69
2021/07/14 04:56:04;;;;;;;14.30;9.45;;;;;;;24.76;47.00;94698.47;2967467;40;20106;-69
2021/07/14 04:58:06;;;;;;;9.45;8.27;;;;;;;24.98;46.79;94697.69;2966279;40;20050;-70
2021/07/14 05:00:08;;;;;;;11.55;9.50;;;;;;;25.10;46.44;94701.03;2965677;40;20451;-70
2021/07/14 05:02:10;;;;;;;11.60;8.50;;;;;;;25.14;46.31;94707.50;2966114;40;20055;-70
2021/07/14 05:04:12;;;;;;;12.68;9.25;;;;;;;25.08;46.58;94712.03;2966207;40;20092;-68
2021/07/14 05:06:15;;;;;;;15.23;8.80;;;;;;;25.00;46.85;94704.41;2959845;40;20067;-69
2021/07/14 05:08:17;;;;;;;9.73;8.50;;;;;;;25.10;46.99;94709.06;2952278;40;20122;-69
2021/07/14 05:10:20;;;;;;;12.50;8.85;;;;;;;25.27;46.75;94711.72;2969205;40;20136;-69
2021/07/14 05:12:22;;;;;;;14.43;8.55;;;;;;;25.48;46.43;94708.19;2957832;40;20164;-69
2021/07/14 05:14:24;;;;;;;12.25;8.73;;;;;;;25.67;46.06;94711.34;2965526;40;20539;-69
2021/07/14 05:16:26;;;;;;;9.57;8.30;;;;;;;25.69;45.87;94706.53;2966168;40;20098;-69
2021/07/14 05:18:28;;;;;;;9.05;7.72;;;;;;;25.81;45.69;94710.94;2966844;40;20059;-69
2021/07/14 05:20:29;;;;;;;8.82;7.93;;;;;;;25.90;45.26;94706.78;2967132;40;20080;-70
2021/07/14 05:22:31;;;;;;;10.65;8.00;;;;;;;26.05;45.54;94709.59;2966782;40;20060;-70
2021/07/14 05:24:33;;;;;;;16.75;8.35;;;;;;;26.20;45.05;94705.41;2965060;40;20108;-71
2021/07/14 05:26:35;;;;;;;12.43;8.52;;;;;;;26.02;45.16;94696.66;2966310;40;20064;-71
2021/07/14 05:28:37;;;;;;;12.60;7.93;;;;;;;25.88;45.56;94706.19;2965720;40;20064;-69
2021/07/14 05:30:40;;;;;;;12.63;8.20;;;;;;;25.77;46.02;94702.59;2964317;40;20101;-70
2021/07/14 05:32:41;;;;;;;11.27;8.30;;;;;;;25.78;46.02;94704.22;2966214;40;20056;-68
2021/07/14 05:34:44;;;;;;;11.30;7.25;;;;;;;25.91;45.84;94701.13;2967274;40;20060;-69
2021/07/14 05:36:45;;;;;;;10.40;7.60;;;;;;;26.08;45.79;94701.00;2966700;40;20068;-70
2021/07/14 05:38:47;;;;;;;9.50;8.35;;;;;;;26.23;45.32;94704.91;2966728;40;20052;-71
2021/07/14 05:40:51;;;;;;;10.40;7.90;;;;;;;26.10;45.84;94701.56;2965830;40;20310;-82
2021/07/14 05:42:52;;;;;;;;;;;;;;;25.77;46.42;94707.97;2959884;40;20134;-83
2021/07/14 05:44:54;;;;;;;12.13;8.13;;;;;;;25.83;46.23;94711.50;2969072;40;19942;-80
2021/07/14 05:46:56;;;;;;;12.18;8.80;;;;;;;26.02;46.14;94710.09;2962972;40;20364;-81
2021/07/14 05:49:02;;;;;;;10.23;8.00;;;;;;;26.22;45.91;94706.78;2959672;40;20045;-82
2021/07/14 05:51:04;;;;;;;10.68;8.27;;;;;;;26.41;45.30;94712.53;2962569;40;20052;-82
2021/07/14 05:53:06;;;;;;;9.43;8.18;;;;;;;26.54;45.25;94705.91;2967479;40;20277;-81
2021/07/14 05:55:10;;;;;;;13.85;9.35;;;;;;;26.64;44.98;94705.22;2967779;40;20051;-82
2021/07/14 05:57:12;;;;;;;11.63;8.18;;;;;;;26.60;44.75;94709.47;2966592;40;20049;-70
2021/07/14 05:59:14;;;;;;;12.88;9.20;;;;;;;26.43;45.04;94714.97;2966369;39;20044;-70
2021/07/14 06:01:15;;;;;;;10.93;9.30;;;;;;;26.08;45.80;94714.44;2964807;40;20070;-83
2021/07/14 06:03:17;;;;;;;12.95;8.70;;;;;;;25.84;46.67;94713.13;2962361;40;20120;-82
2021/07/14 06:05:19;;;;;;;10.65;8.80;;;;;;;25.78;47.31;94714.13;2966328;40;20105;-83
2021/07/14 06:07:20;;;;;;;11.75;8.48;;;;;;;26.00;46.39;94712.22;2955772;40;20068;-83
2021/07/14 06:09:22;;;;;;;13.00;9.05;;;;;;;25.93;46.48;94709.75;2968181;40;20056;-81
2021/07/14 06:11:25;;;;;;;9.93;8.88;;;;;;;25.71;47.40;94719.72;2969187;40;20094;-83
2021/07/14 06:13:26;;;;;;;11.18;9.00;;;;;;;25.79;47.42;94718.44;2968819;40;20201;-83
2021/07/14 06:15:28;;;;;;;11.93;8.75;;;;;;;25.90;47.37;94712.94;2968807;40;20080;-81
2021/07/14 06:17:30;;;;;;;9.85;8.10;;;;;;;26.19;46.79;94719.91;2968577;40;20072;-84
2021/07/14 06:19:32;;;;;;;12.88;8.65;;;;;;;26.41;46.15;94719.78;2969267;40;20098;-81
2021/07/14 06:21:34;;;;;;;10.40;8.80;;;;;;;26.46;45.63;94719.84;2969454;40;20060;-82
2021/07/14 06:23:36;;;;;;;14.93;7.75;;;;;;;26.48;45.39;94715.00;2971995;40;20060;-80
2021/07/14 06:25:38;;;;;;;13.75;8.60;;;;;;;26.58;45.23;94719.66;2972501;40;20386;-82
2021/07/14 06:27:44;;;;;;;12.77;9.07;;;;;;;26.55;45.42;94716.41;2971012;40;20459;-81
2021/07/14 06:29:45;;;;;;;11.65;9.40;;;;;;;26.51;45.64;94712.63;2960665;40;20077;-81
2021/07/14 06:32:04;;;;;;;11.70;9.00;;;;;;;26.36;46.18;94715.19;2968743;40;20071;-82
2021/07/14 06:34:06;;;;;;;14.50;9.83;;;;;;;26.00;46.85;94709.53;2964322;40;20449;-82
2021/07/14 06:36:08;;;;;;;11.23;9.45;;;;;;;26.18;46.55;94711.03;2969022;40;20056;-81
2021/07/14 06:38:10;;;;;;;16.70;9.40;;;;;;;26.48;46.39;94715.81;2960647;40;20064;-82
2021/07/14 06:40:13;;;;;;;13.80;8.80;;;;;;;26.61;46.16;94716.44;2968705;40;20294;-83
2021/07/14 06:42:15;;;;;;;22.30;9.40;;;;;;;26.68;46.12;94715.16;2960416;40;20421;-81
2021/07/14 06:44:18;;;;;;;14.43;8.98;;;;;;;26.77;46.06;94718.19;2961350;40;20603;-84
2021/07/14 06:46:20;;;;;;;14.17;8.83;;;;;;;26.97;45.46;94717.47;2960056;40;20048;-84
2021/07/14 06:48:22;;;;;;;11.95;8.68;;;;;;;27.15;45.08;94713.53;2968615;40;20044;-84
2021/07/14 06:50:24;;;;;;;11.65;8.23;;;;;;;27.29;44.66;94712.00;2970091;40;20127;-83
2021/07/14 06:52:25;;;;;;;10.10;8.23;;;;;;;27.53;44.41;94716.91;2956935;40;20049;-85
2021/07/14 06:54:28;;;;;;;14.80;8.65;;;;;;;27.49;44.07;94713.13;2968463;40;20064;-84
2021/07/14 06:56:30;;;;;;;14.70;8.75;;;;;;;27.21;44.81;94704.44;2968713;40;20391;-82
2021/07/14 06:58:36;;;;;;;12.70;8.68;;;;;;;27.30;45.00;94710.94;2970568;40;20432;-82
2021/07/14 07:00:38;;;;;;;14.07;8.68;;;;;;;27.08;45.30;94704.88;2959801;40;20047;-83
2021/07/14 07:02:40;;;;;;;11.02;8.45;;;;;;;27.08;45.40;94702.19;2970990;40;20398;-82
2021/07/14 07:04:42;;;;;;;17.50;9.30;;;;;;;27.34;45.01;94709.34;2969395;40;20045;-82
2021/07/14 07:06:43;;;;;;;15.98;8.93;;;;;;;27.44;44.85;94705.84;2969651;40;20619;-81
2021/07/14 07:08:45;;;;;;;14.93;8.65;;;;;;;27.52;45.24;94701.84;2969651;40;20049;-83
2021/07/14 07:10:47;;;;;;;11.60;8.02;;;;;;;27.69;44.65;94707.00;2967973;40;20084;-83
2021/07/14 07:12:49;;;;;;;11.83;8.60;;;;;;;27.91;43.97;94702.22;2965667;40;20063;-84
2021/07/14 07:14:51;;;;;;;16.80;8.45;;;;;;;28.09;43.61;94698.22;2968008;40;20387;-83
2021/07/14 07:16:53;;;;;;;17.42;9.35;;;;;;;27.98;43.49;94701.94;2958663;40;20089;-84
2021/07/14 07:18:56;;;;;;;10.48;8.60;;;;;;;28.15;43.69;94699.00;2961350;40;20501;-84
2021/07/14 07:20:59;;;;;;;13.32;8.30;;;;;;;28.21;42.93;94697.94;2966488;40;20056;-82
2021/07/14 07:23:00;;;;;;;13.70;8.50;;;;;;;28.37;43.00;94696.03;2969404;40;20052;-83
2021/07/14 07:25:04;;;;;;;;;;;;;;;28.53;42.50;94694.97;2970887;40;20424;-83
2021/07/14 07:27:08;;;;;;;21.58;8.68;;;;;;;28.73;42.60;94690.63;2970133;40;19947;-84
2021/07/14 07:29:10;;;;;;;8.52;7.70;;;;;;;28.75;41.91;94685.75;2969893;40;20133;-83
2021/07/14 07:31:12;;;;;;;15.48;8.75;;;;;;;28.41;42.40;94689.00;2970704;40;20059;-83
2021/07/14 07:33:14;;;;;;;9.52;8.32;;;;;;;28.18;43.24;94683.13;2967439;40;20177;-83
2021/07/14 07:35:16;;;;;;;10.15;8.20;;;;;;;27.97;43.03;94697.66;2965269;40;20285;-84
2021/07/14 07:37:18;;;;;;;10.07;8.05;;;;;;;28.19;42.75;94692.81;2968607;40;20396;-84
2021/07/14 07:39:20;;;;;;;12.98;9.20;;;;;;;28.13;43.02;94690.38;2966108;40;20376;-84
2021/07/14 07:41:23;;;;;;;15.43;8.35;;;;;;;28.32;42.28;94696.03;2967890;40;20386;-82
2021/07/14 07:43:29;;;;;;;11.45;8.48;;;;;;;28.34;42.54;94693.88;2962775;40;20048;-82
2021/07/14 07:45:31;;;;;;;9.32;8.13;;;;;;;28.43;41.90;94689.56;2968385;40;20059;-85
2021/07/14 07:47:33;;;;;;;10.73;8.52;;;;;;;28.52;41.73;94690.66;2969244;40;20312;-82
2021/07/14 07:49:35;;;;;;;12.50;8.33;;;;;;;28.74;41.51;94678.75;2968161;40;20056;-81
2021/07/14 07:51:57;;;;;;;12.18;7.88;;;;;;;28.90;41.17;94682.22;2966953;40;20056;-83
2021/07/14 07:53:59;;;;;;;10.32;7.72;;;;;;;29.18;40.27;94673.50;2961052;40;20059;-82
2021/07/14 07:56:01;;;;;;;10.07;7.95;;;;;;;29.19;40.21;94672.44;2966815;40;20096;-82
2021/07/14 07:58:03;;;;;;;11.35;8.68;;;;;;;29.11;40.02;94669.50;2964104;40;20072;-84
2021/07/14 08:00:07;;;;;;;15.25;8.10;;;;;;;29.13;40.53;94675.44;2967189;40;20062;-82
2021/07/14 08:02:10;;;;;;;12.38;8.25;;;;;;;29.32;39.89;94673.72;2968534;40;20033;-83
2021/07/14 08:04:12;;;;;;;9.95;8.30;;;;;;;29.51;40.05;94665.78;2967397;40;20078;-82
2021/07/14 08:06:13;;;;;;;11.35;7.97;;;;;;;29.68;39.47;94668.09;2968862;40;20096;-84
2021/07/14 08:08:16;;;;;;;10.88;8.27;;;;;;;29.72;39.68;94671.88;2959869;40;20114;-82
2021/07/14 08:10:18;;;;;;;11.65;8.93;;;;;;;29.72;39.56;94665.69;2971264;40;20072;-84
2021/07/14 08:12:20;;;;;;;9.07;7.32;;;;;;;29.91;38.86;94668.53;2964097;40;20151;-86
2021/07/14 08:14:21;;;;;;;12.38;8.15;;;;;;;29.83;38.71;94669.13;2969611;40;20113;-84
2021/07/14 08:16:23;;;;;;;9.85;8.32;;;;;;;29.40;39.49;94664.22;2969021;40;20058;-83
2021/07/14 08:18:25;;;;;;;11.63;7.65;;;;;;;29.24;39.50;94660.81;2961724;40;20061;-83
2021/07/14 08:20:27;;;;;;;13.10;8.48;;;;;;;29.50;39.38;94658.78;2968988;40;20109;-84
2021/07/14 08:22:29;;;;;;;9.20;7.55;;;;;;;29.68;38.58;94660.00;2972150;40;20064;-81
2021/07/14 08:24:31;;;;;;;11.43;8.18;;;;;;;29.96;38.47;94649.56;2967526;40;20060;-82
2021/07/14 08:26:32;;;;;;;11.15;7.53;;;;;;;29.88;37.51;94642.06;2970955;40;20063;-84
2021/07/14 08:28:34;;;;;;;10.27;7.30;;;;;;;30.07;37.54;94651.09;2971528;40;20059;-82
2021/07/14 08:30:36;;;;;;;11.60;7.82;;;;;;;30.30;36.76;94654.19;2971933;40;20397;-80
2021/07/14 08:32:38;;;;;;;10.45;7.35;;;;;;;30.40;36.18;94659.50;2968871;40;20489;-82
2021/07/14 08:34:39;;;;;;;8.30;7.30;;;;;;;30.51;36.12;94655.59;2966549;40;20053;-81
2021/07/14 08:36:41;;;;;;;7.85;7.03;;;;;;;30.21;35.65;94648.56;2969477;40;20060;-80
2021/07/14 08:38:43;;;;;;;8.32;7.10;;;;;;;30.24;35.57;94655.28;2973395;40;20089;-81
2021/07/14 08:40:46;;;;;;;8.35;6.80;;;;;;;30.42;35.77;94660.81;2968220;40;20410;-81
2021/07/14 08:42:49;;;;;;;10.80;6.82;;;;;;;30.43;35.39;94656.22;2968888;40;20044;-83
2021/07/14 08:44:52;;;;;;;7.50;6.65;;;;;;;30.48;35.36;94655.34;2959131;40;20060;-84
2021/07/14 08:46:54;;;;;;;;;;;;;;;30.66;35.48;94657.34;2968525;40;20049;-83
2021/07/14 08:48:59;;;;;;;8.13;7.13;;;;;;;30.80;34.70;94650.16;2966388;40;20015;-82
2021/07/14 08:51:01;;;;;;;11.43;6.97;;;;;;;30.96;34.83;94645.41;2959354;40;20128;-83
2021/07/14 08:53:04;;;;;;;13.25;7.05;;;;;;;31.10;34.53;94650.13;2963527;40;20403;-84
2021/07/14 08:55:07;;;;;;;9.25;7.63;;;;;;;31.10;34.89;94650.13;2971670;40;20064;-82
2021/07/14 08:57:09;;;;;;;9.30;7.32;;;;;;;30.95;34.93;94653.81;2972366;40;20067;-83
2021/07/14 08:59:11;;;;;;;11.40;7.57;;;;;;;30.66;35.18;94651.94;2968860;40;20133;-84
2021/07/14 09:01:13;;;;;;;9.38;7.40;;;;;;;30.70;35.17;94646.78;2968628;40;20139;-83
2021/07/14 09:03:15;;;;;;;8.82;7.30;;;;;;;30.55;34.66;94647.75;2958776;40;20069;-84
2021/07/14 09:05:17;;;;;;;7.68;6.70;;;;;;;30.71;34.71;94646.47;2967543;40;20084;-86
2021/07/14 09:07:18;;;;;;;8.98;6.85;;;;;;;30.91;34.21;94642.78;2968153;40;20063;-84
2021/07/14 09:09:20;;;;;;;12.65;7.20;;;;;;;31.07;33.85;94645.28;2962200;40;20067;-84
2021/07/14 09:11:22;;;;;;;11.63;6.55;;;;;;;31.24;33.39;94645.59;2961138;40;20093;-82
2021/07/14 09:13:35;;;;;;;10.18;7.18;;;;;;;31.33;33.43;94638.44;2955239;40;20424;-82
2021/07/14 09:15:41;;;;;;;6.70;6.00;;;;;;;31.43;32.87;94642.97;2942646;40;20053;-82
2021/07/14 09:17:49;;;;;;;9.27;6.90;;;;;;;31.20;33.36;94642.66;2968567;40;20420;-82
2021/07/14 09:19:53;;;;;;;7.90;7.10;;;;;;;31.23;32.94;94639.41;2968896;40;20045;-83
2021/07/14 09:21:56;;;;;;;9.23;6.20;;;;;;;31.19;32.79;94640.25;2963032;40;20047;-84
2021/07/14 09:23:58;;;;;;;6.90;6.13;;;;;;;31.31;33.07;94643.34;2967972;40;20059;-70
2021/07/14 09:26:02;;;;;;;7.60;6.53;;;;;;;31.38;33.24;94646.47;2963287;40;20083;-70
2021/07/14 09:28:05;;;;;;;9.18;6.53;;;;;;;31.49;32.59;94646.38;2965837;40;20060;-69
2021/07/14 09:30:18;;;;;;;7.53;6.57;;;;;;;31.60;32.27;94645.16;2966649;40;20276;-69
2021/07/14 09:32:19;;;;;;;8.18;6.50;;;;;;;31.63;32.74;94641.84;2964442;40;20465;-69
2021/07/14 09:34:29;;;;;;;10.82;6.97;;;;;;;31.68;33.18;94627.44;2965018;40;20053;-69
2021/07/14 09:36:34;;;;;;;9.23;6.90;;;;;;;31.80;32.90;94635.91;2964996;40;20329;-70
2021/07/14 09:38:39;;;;;;;15.52;7.72;;;;;;;31.88;33.03;94640.66;2966614;40;20060;-69
2021/07/14 09:40:43;;;;;;;8.10;6.70;;;;;;;31.99;32.68;94638.63;2962676;40;20089;-71
2021/07/14 09:43:11;;;;;;;7.30;6.40;;;;;;;32.17;32.29;94629.66;2961032;40;20056;-70
2021/07/14 09:45:13;;;;;;;10.25;6.78;;;;;;;32.27;31.93;94636.81;2962959;40;20057;-70